createdAt,value
2023-04-07T00:00:27.760Z,7.40
2023-04-07T00:02:54.254Z,7.55
2023-04-07T00:05:23.193Z,7.72
2023-04-07T00:07:56.287Z,8.00
2023-04-07T00:10:24.106Z,7.47
2023-04-07T00:12:52.916Z,9.02
2023-04-07T00:15:19.516Z,8.55
2023-04-07T00:17:45.902Z,7.95
2023-04-07T00:20:12.441Z,8.05
2023-04-07T00:22:38.836Z,7.63
2023-04-07T00:25:05.649Z,7.82
2023-04-07T00:27:32.027Z,8.05
2023-04-07T00:29:58.376Z,8.57
2023-04-07T00:32:24.798Z,8.63
2023-04-07T00:34:53.511Z,9.57
2023-04-07T00:37:19.868Z,8.88
2023-04-07T00:39:47.164Z,8.77
2023-04-07T00:42:13.652Z,9.32
2023-04-07T00:44:40.422Z,8.98
2023-04-07T00:47:06.856Z,9.07
2023-04-07T00:49:33.302Z,9.45
2023-04-07T00:51:59.656Z,10.35
2023-04-07T00:54:28.513Z,10.25
2023-04-07T00:56:54.887Z,10.88
2023-04-07T00:59:23.884Z,9.77
2023-04-07T01:01:53.226Z,9.50
2023-04-07T01:04:28.490Z,8.88
2023-04-07T01:06:57.419Z,9.65
2023-04-07T01:09:27.459Z,8.27
2023-04-07T01:12:05.392Z,8.98
2023-04-07T01:14:33.872Z,9.07
2023-04-07T01:17:01.126Z,9.30
2023-04-07T01:19:33.869Z,8.95
2023-04-07T01:22:00.788Z,9.47
2023-04-07T01:24:39.284Z,9.90
2023-04-07T01:27:13.519Z,10.40
2023-04-07T01:29:42.220Z,9.77
2023-04-07T01:32:10.586Z,10.18
2023-04-07T01:34:38.417Z,9.63
2023-04-07T01:37:05.044Z,9.30
2023-04-07T01:39:31.896Z,9.00
2023-04-07T01:42:02.315Z,9.10
2023-04-07T01:44:29.021Z,8.50
2023-04-07T01:46:55.824Z,8.88
2023-04-07T01:49:23.333Z,9.48
2023-04-07T01:51:50.674Z,9.35
2023-04-07T01:54:17.831Z,9.25
2023-04-07T01:56:45.005Z,10.02
2023-04-07T01:59:11.551Z,9.15
2023-04-07T02:01:38.181Z,8.60
2023-04-07T02:04:22.033Z,8.55
2023-04-07T02:06:52.642Z,8.80
2023-04-07T02:09:20.621Z,9.07
2023-04-07T02:11:47.740Z,9.35
2023-04-07T02:14:14.601Z,9.27
2023-04-07T02:16:41.859Z,8.40
2023-04-07T02:19:08.455Z,9.77
2023-04-07T02:21:35.610Z,9.50
2023-04-07T02:24:02.735Z,9.23
2023-04-07T02:26:34.276Z,8.50
2023-04-07T02:29:02.179Z,9.73
2023-04-07T02:31:28.616Z,8.82
2023-04-07T02:33:57.270Z,9.70
2023-04-07T02:36:23.766Z,9.05
2023-04-07T02:38:50.407Z,9.80
2023-04-07T02:41:16.834Z,9.45
2023-04-07T02:43:43.224Z,9.73
2023-04-07T02:46:09.643Z,9.88
2023-04-07T02:48:36.202Z,10.10
2023-04-07T02:51:02.565Z,10.75
2023-04-07T02:53:28.950Z,9.75
2023-04-07T02:55:55.294Z,10.30
2023-04-07T02:58:21.748Z,9.80
2023-04-07T03:00:49.615Z,10.65
2023-04-07T03:03:16.971Z,12.07
2023-04-07T03:05:43.474Z,12.30
2023-04-07T03:08:11.564Z,13.07
2023-04-07T03:10:39.114Z,12.50
2023-04-07T03:13:06.109Z,9.73
2023-04-07T03:15:32.690Z,9.35
2023-04-07T03:17:59.119Z,9.80
2023-04-07T03:20:25.598Z,8.82
2023-04-07T03:22:51.952Z,8.63
2023-04-07T03:25:18.373Z,9.15
2023-04-07T03:27:44.896Z,9.10
2023-04-07T03:30:11.429Z,8.77
2023-04-07T03:32:37.766Z,7.85
2023-04-07T03:35:04.330Z,8.00
2023-04-07T03:37:30.678Z,8.15
2023-04-07T03:39:57.086Z,8.45
2023-04-07T03:42:26.339Z,10.23
2023-04-07T03:44:53.393Z,12.95
2023-04-07T03:47:19.796Z,9.20
2023-04-07T03:49:46.321Z,8.77
2023-04-07T03:52:12.642Z,9.18
2023-04-07T03:54:39.047Z,15.38
2023-04-07T03:57:05.457Z,16.92
2023-04-07T03:59:31.835Z,16.02
2023-04-07T04:01:58.262Z,15.75
2023-04-07T04:04:24.836Z,11.82
2023-04-07T04:06:51.391Z,10.35
2023-04-07T04:09:17.813Z,9.23
2023-04-07T04:11:44.308Z,9.23
2023-04-07T04:14:10.679Z,9.00
2023-04-07T04:16:37.129Z,9.13
2023-04-07T04:19:03.509Z,10.65
2023-04-07T04:21:30.200Z,9.63
2023-04-07T04:23:56.535Z,9.75
2023-04-07T04:26:25.953Z,9.68
2023-04-07T04:28:52.998Z,9.95
2023-04-07T04:31:19.492Z,9.82
2023-04-07T04:33:46.248Z,10.07
2023-04-07T04:36:12.659Z,9.55
2023-04-07T04:38:39.040Z,8.95
2023-04-07T04:41:05.687Z,9.77
2023-04-07T04:43:32.100Z,9.10
2023-04-07T04:45:58.782Z,9.10
2023-04-07T04:48:25.097Z,9.50
2023-04-07T04:50:51.532Z,9.38
2023-04-07T04:53:17.894Z,9.55
2023-04-07T04:55:47.195Z,10.35
2023-04-07T04:58:13.588Z,10.65
2023-04-07T05:00:39.982Z,10.10
2023-04-07T05:03:06.510Z,9.98
2023-04-07T05:05:33.080Z,10.20
2023-04-07T05:07:59.473Z,10.45
2023-04-07T05:10:25.954Z,9.65
2023-04-07T05:12:52.461Z,9.70
2023-04-07T05:15:18.865Z,11.38
2023-04-07T05:17:50.328Z,11.25
2023-04-07T05:20:17.257Z,11.98
2023-04-07T05:22:43.582Z,11.75
2023-04-07T05:25:10.196Z,11.60
2023-04-07T05:27:36.563Z,12.15
2023-04-07T05:30:03.302Z,11.80
2023-04-07T05:32:29.844Z,11.30
2023-04-07T05:34:56.584Z,11.13
2023-04-07T05:37:22.978Z,10.48
2023-04-07T05:39:49.350Z,10.85
2023-04-07T05:42:18.517Z,10.07
2023-04-07T05:44:44.893Z,10.45
2023-04-07T05:47:11.463Z,9.82
2023-04-07T05:49:37.843Z,9.52
2023-04-07T05:52:05.953Z,9.80
2023-04-07T05:54:32.536Z,10.20
2023-04-07T05:56:58.922Z,11.30
2023-04-07T05:59:25.332Z,11.25
2023-04-07T06:01:51.825Z,10.77
2023-04-07T06:04:18.212Z,9.75
2023-04-07T06:06:44.580Z,9.60
2023-04-07T06:09:11.025Z,10.30
2023-04-07T06:11:37.381Z,10.73
2023-04-07T06:14:03.792Z,9.85
2023-04-07T06:16:30.280Z,10.48
2023-04-07T06:18:56.747Z,9.32
2023-04-07T06:21:23.469Z,9.82
2023-04-07T06:23:50.045Z,9.80
2023-04-07T06:26:19.120Z,9.50
2023-04-07T06:28:47.974Z,9.95
2023-04-07T06:31:14.429Z,10.48
2023-04-07T06:33:41.107Z,9.57
2023-04-07T06:36:07.544Z,9.55
2023-04-07T06:38:33.958Z,9.50
2023-04-07T06:41:00.429Z,9.45
2023-04-07T06:43:26.917Z,9.88
2023-04-07T06:45:53.383Z,9.70
2023-04-07T06:48:19.832Z,9.45
2023-04-07T06:50:46.842Z,9.70
2023-04-07T06:53:15.552Z,9.30
2023-04-07T06:55:41.911Z,8.98
2023-04-07T06:58:08.307Z,9.15
2023-04-07T07:00:35.954Z,9.35
2023-04-07T07:03:02.508Z,9.23
2023-04-07T07:05:28.979Z,9.73
2023-04-07T07:07:55.307Z,10.13
2023-04-07T07:10:24.221Z,8.70
2023-04-07T07:12:51.045Z,8.43
2023-04-07T07:15:19.947Z,8.00
2023-04-07T07:17:46.354Z,7.85
2023-04-07T07:20:12.747Z,7.10
2023-04-07T07:22:39.146Z,7.57
2023-04-07T07:25:05.611Z,7.00
2023-04-07T07:27:32.164Z,6.78
2023-04-07T07:29:58.541Z,6.40
2023-04-07T07:32:24.949Z,6.90
2023-04-07T07:34:51.342Z,5.80
2023-04-07T07:37:17.955Z,6.30
2023-04-07T07:39:44.311Z,6.75
2023-04-07T07:42:10.866Z,6.30
2023-04-07T07:44:37.232Z,6.95
2023-04-07T07:47:03.626Z,6.63
2023-04-07T07:49:29.956Z,6.43
2023-04-07T07:51:56.391Z,6.72
2023-04-07T07:54:22.860Z,5.85
2023-04-07T07:56:49.224Z,6.10
2023-04-07T07:59:17.746Z,6.50
2023-04-07T08:01:44.367Z,6.13
2023-04-07T08:04:11.054Z,6.40
2023-04-07T08:06:37.620Z,6.28
2023-04-07T08:09:04.044Z,6.30
2023-04-07T08:11:30.499Z,5.97
2023-04-07T08:13:57.155Z,6.00
2023-04-07T08:16:24.112Z,5.60
2023-04-07T08:18:50.550Z,5.70
2023-04-07T08:21:16.938Z,5.80
2023-04-07T08:23:43.645Z,5.93
2023-04-07T08:26:10.149Z,5.60
2023-04-07T08:28:36.603Z,5.50
2023-04-07T08:31:03.156Z,5.38
2023-04-07T08:33:29.616Z,5.30
2023-04-07T08:35:56.022Z,5.38
2023-04-07T08:38:22.744Z,5.18
2023-04-07T08:40:53.405Z,5.72
2023-04-07T08:43:20.455Z,5.38
2023-04-07T08:45:47.208Z,5.15
2023-04-07T08:48:17.808Z,5.60
2023-04-07T08:50:44.705Z,5.35
2023-04-07T08:53:12.485Z,5.50
2023-04-07T08:55:40.565Z,4.90
2023-04-07T08:58:12.295Z,5.40
2023-04-07T09:00:45.977Z,5.18
2023-04-07T09:05:39.167Z,5.28
2023-04-07T09:08:05.629Z,5.18
2023-04-07T09:10:32.081Z,5.18
2023-04-07T09:13:01.329Z,4.95
2023-04-07T09:15:31.892Z,5.32
2023-04-07T09:17:58.606Z,5.00
2023-04-07T09:20:25.462Z,4.38
2023-04-07T09:22:51.911Z,5.00
2023-04-07T09:25:27.246Z,4.50
2023-04-07T09:28:04.393Z,4.65
2023-04-07T09:30:32.243Z,4.90
2023-04-07T09:32:59.414Z,4.70
2023-04-07T09:35:28.161Z,4.97
2023-04-07T09:38:12.905Z,5.47
2023-04-07T09:40:39.377Z,4.35
2023-04-07T09:43:06.485Z,4.75
2023-04-07T09:45:36.154Z,5.32
2023-04-07T09:48:07.721Z,4.53
2023-04-07T09:50:35.237Z,4.45
2023-04-07T09:53:03.085Z,4.50
2023-04-07T09:55:30.242Z,4.38
2023-04-07T09:57:56.669Z,5.40
2023-04-07T10:00:23.372Z,5.20
2023-04-07T10:02:51.373Z,4.90
2023-04-07T10:05:18.026Z,5.10
2023-04-07T10:07:44.704Z,4.65
2023-04-07T10:10:11.448Z,4.43
2023-04-07T10:12:38.284Z,5.30
2023-04-07T10:15:04.921Z,5.00
2023-04-07T10:17:36.574Z,4.65
2023-04-07T10:20:04.603Z,4.90
2023-04-07T10:22:31.719Z,4.97
2023-04-07T10:25:06.330Z,5.45
2023-04-07T10:27:37.001Z,4.85
2023-04-07T10:30:05.132Z,5.07
2023-04-07T10:32:31.591Z,5.05
2023-04-07T10:34:59.077Z,4.97
2023-04-07T10:37:26.119Z,4.60
2023-04-07T10:40:12.458Z,4.85
2023-04-07T10:42:39.053Z,4.95
2023-04-07T10:45:06.103Z,4.90
2023-04-07T10:47:32.709Z,4.70
2023-04-07T10:50:16.738Z,4.43
2023-04-07T10:55:28.413Z,3.97
2023-04-07T10:58:13.724Z,4.80
2023-04-07T11:00:40.084Z,4.85
2023-04-07T11:03:13.156Z,4.75
2023-04-07T11:05:40.574Z,5.32
2023-04-07T11:08:08.010Z,5.30
2023-04-07T11:10:35.076Z,5.45
2023-04-07T11:13:02.529Z,5.40
2023-04-07T11:15:28.903Z,5.28
2023-04-07T11:18:10.732Z,4.80
2023-04-07T11:20:46.108Z,4.78
2023-04-07T11:23:15.134Z,4.90
2023-04-07T11:25:42.464Z,5.07
2023-04-07T11:28:09.730Z,5.22
2023-04-07T11:30:36.323Z,4.75
2023-04-07T11:33:02.844Z,4.97
2023-04-07T11:35:29.391Z,4.80
2023-04-07T11:37:59.742Z,4.65
2023-04-07T11:40:36.970Z,4.20
2023-04-07T11:43:15.104Z,4.53
2023-04-07T11:45:41.719Z,4.55
2023-04-07T11:48:34.426Z,5.43
2023-04-07T11:51:01.524Z,4.88
2023-04-07T11:53:28.661Z,4.97
2023-04-07T11:56:01.785Z,4.90
2023-04-07T11:58:28.163Z,4.35
2023-04-07T12:00:58.775Z,5.07
2023-04-07T12:03:25.523Z,5.10
2023-04-07T12:05:52.245Z,4.75
2023-04-07T12:08:19.698Z,5.45
2023-04-07T12:10:46.619Z,4.60
2023-04-07T12:13:13.966Z,5.55
2023-04-07T12:15:40.571Z,5.05
2023-04-07T12:18:06.970Z,5.10
2023-04-07T12:20:33.346Z,5.07
2023-04-07T12:23:00.511Z,4.75
2023-04-07T12:25:27.569Z,4.80
2023-04-07T12:27:53.965Z,4.70
2023-04-07T12:30:21.301Z,4.53
2023-04-07T12:32:47.722Z,4.70
2023-04-07T12:35:14.161Z,4.75
2023-04-07T12:37:40.508Z,5.07
2023-04-07T12:40:07.277Z,5.43
2023-04-07T12:42:33.689Z,4.80
2023-04-07T12:45:00.389Z,5.38
2023-04-07T12:47:27.181Z,4.93
2023-04-07T12:49:53.576Z,5.00
2023-04-07T12:52:19.913Z,4.63
2023-04-07T12:54:46.719Z,5.38
2023-04-07T12:57:13.131Z,4.80
2023-04-07T12:59:39.842Z,4.45
2023-04-07T13:02:06.882Z,4.53
2023-04-07T13:04:35.140Z,3.92
2023-04-07T13:07:03.002Z,4.20
2023-04-07T13:09:29.429Z,4.20
2023-04-07T13:11:58.976Z,4.13
2023-04-07T13:14:25.405Z,4.50
2023-04-07T13:16:54.331Z,4.07
2023-04-07T13:19:21.114Z,4.30
2023-04-07T13:21:48.309Z,4.30
2023-04-07T13:24:17.268Z,4.38
2023-04-07T13:26:43.654Z,4.30
2023-04-07T13:29:12.500Z,4.13
2023-04-07T13:31:38.974Z,3.65
2023-04-07T13:34:05.423Z,3.85
2023-04-07T13:36:31.800Z,3.95
2023-04-07T13:38:58.161Z,3.67
2023-04-07T13:41:24.559Z,3.60
2023-04-07T13:43:51.340Z,3.88
2023-04-07T13:46:27.857Z,3.40
2023-04-07T13:48:54.734Z,3.60
2023-04-07T13:51:21.573Z,3.38
2023-04-07T13:53:48.327Z,3.45
2023-04-07T13:56:14.882Z,2.92
2023-04-07T13:58:41.246Z,3.00
2023-04-07T14:01:08.542Z,3.28
2023-04-07T14:03:35.457Z,2.97
2023-04-07T14:06:02.473Z,3.55
2023-04-07T14:08:28.968Z,3.00
2023-04-07T14:10:55.521Z,3.42
2023-04-07T14:13:22.061Z,2.92
2023-04-07T14:15:48.830Z,2.50
2023-04-07T14:18:15.552Z,3.45
2023-04-07T14:20:41.959Z,3.72
2023-04-07T14:23:08.436Z,3.63
2023-04-07T14:25:34.870Z,3.55
2023-04-07T14:28:01.487Z,2.78
2023-04-07T14:30:30.848Z,3.08
2023-04-07T14:32:57.343Z,3.17
2023-04-07T14:35:23.869Z,3.22
2023-04-07T14:37:50.284Z,3.25
2023-04-07T14:40:16.840Z,3.53
2023-04-07T14:42:45.604Z,4.20
2023-04-07T14:45:12.872Z,3.95
2023-04-07T14:47:39.303Z,4.13
2023-04-07T14:50:06.084Z,4.07
2023-04-07T14:52:32.484Z,3.40
2023-04-07T14:55:00.154Z,4.13
2023-04-07T14:57:26.937Z,3.83
2023-04-07T14:59:53.387Z,3.30
2023-04-07T15:02:19.951Z,4.10
2023-04-07T15:04:46.874Z,4.90
2023-04-07T15:07:13.473Z,3.55
2023-04-07T15:09:42.180Z,4.80
2023-04-07T15:12:08.566Z,5.55
2023-04-07T15:14:34.927Z,3.55
2023-04-07T15:17:01.347Z,3.65
2023-04-07T15:19:27.762Z,4.10
2023-04-07T15:21:54.156Z,3.72
2023-04-07T15:24:22.215Z,4.00
2023-04-07T15:26:48.986Z,3.33
2023-04-07T15:29:15.664Z,3.40
2023-04-07T15:31:42.078Z,3.78
2023-04-07T15:34:08.477Z,3.53
2023-04-07T15:36:34.883Z,3.42
2023-04-07T15:39:04.759Z,3.60
2023-04-07T15:41:31.383Z,2.92
2023-04-07T15:44:02.280Z,2.80
2023-04-07T15:46:28.789Z,3.10
2023-04-07T15:48:55.441Z,3.30
2023-04-07T15:51:21.827Z,2.63
2023-04-07T15:53:50.877Z,2.85
2023-04-07T15:56:18.743Z,2.90
2023-04-07T15:58:45.907Z,2.80
2023-04-07T16:01:12.516Z,2.85
2023-04-07T16:03:39.144Z,4.30
2023-04-07T16:06:05.866Z,4.45
2023-04-07T16:08:32.300Z,4.50
2023-04-07T16:10:58.687Z,4.90
2023-04-07T16:13:25.275Z,26.70
2023-04-07T16:15:55.346Z,5.60
2023-04-07T16:18:21.785Z,3.92
2023-04-07T16:20:48.121Z,4.47
2023-04-07T16:23:14.609Z,4.28
2023-04-07T16:25:40.992Z,4.50
2023-04-07T16:28:07.391Z,4.55
2023-04-07T16:30:33.775Z,5.30
2023-04-07T16:33:00.582Z,4.15
2023-04-07T16:35:27.034Z,4.70
2023-04-07T16:37:54.818Z,4.53
2023-04-07T16:40:21.464Z,4.70
2023-04-07T16:42:47.914Z,4.30
2023-04-07T16:45:14.367Z,4.55
2023-04-07T16:47:44.495Z,4.35
2023-04-07T16:50:14.008Z,4.60
2023-04-07T16:52:40.590Z,4.80
2023-04-07T16:55:07.273Z,4.22
2023-04-07T16:57:33.618Z,4.03
2023-04-07T16:59:59.959Z,4.63
2023-04-07T17:02:27.616Z,4.18
2023-04-07T17:04:54.250Z,4.90
2023-04-07T17:07:20.705Z,4.60
2023-04-07T17:09:49.435Z,4.40
2023-04-07T17:12:16.130Z,4.55
2023-04-07T17:14:42.562Z,4.80
2023-04-07T17:17:08.942Z,5.10
2023-04-07T17:19:35.714Z,5.50
2023-04-07T17:22:02.038Z,5.47
2023-04-07T17:24:28.370Z,5.10
2023-04-07T17:26:54.722Z,5.03
2023-04-07T17:29:21.876Z,4.65
2023-04-07T17:31:49.359Z,4.72
2023-04-07T17:34:15.909Z,5.05
2023-04-07T17:36:42.313Z,4.72
2023-04-07T17:39:08.756Z,5.70
2023-04-07T17:41:38.453Z,5.60
2023-04-07T17:44:05.255Z,5.78
2023-04-07T17:46:34.112Z,5.40
2023-04-07T17:49:01.741Z,5.53
2023-04-07T17:51:28.782Z,5.30
2023-04-07T17:53:55.220Z,6.50
2023-04-07T17:56:21.655Z,7.53
2023-04-07T17:58:48.262Z,18.90
2023-04-07T18:01:15.695Z,8.25
2023-04-07T18:03:42.525Z,10.45
2023-04-07T18:06:09.339Z,6.45
2023-04-07T18:08:38.609Z,7.32
2023-04-07T18:11:06.958Z,7.22
2023-04-07T18:13:33.825Z,4.70
2023-04-07T18:16:00.786Z,3.90
2023-04-07T18:18:27.356Z,3.15
2023-04-07T18:20:56.180Z,5.03
2023-04-07T18:23:22.593Z,5.78
2023-04-07T18:25:49.431Z,6.10
2023-04-07T18:28:17.059Z,4.35
2023-04-07T18:30:43.451Z,4.20
2023-04-07T18:33:09.920Z,5.35
2023-04-07T18:35:36.757Z,7.25
2023-04-07T18:38:04.612Z,7.10
2023-04-07T18:40:33.302Z,7.15
2023-04-07T18:42:59.814Z,7.05
2023-04-07T18:45:26.252Z,5.65
2023-04-07T18:47:52.639Z,3.20
2023-04-07T18:50:19.766Z,3.30
2023-04-07T18:52:46.186Z,3.80
2023-04-07T18:55:12.562Z,3.50
2023-04-07T18:57:39.553Z,3.00
2023-04-07T19:00:06.334Z,3.80
2023-04-07T19:02:32.953Z,6.68
2023-04-07T19:05:01.908Z,11.30
2023-04-07T19:07:28.328Z,9.50
2023-04-07T19:09:54.952Z,9.20
2023-04-07T19:12:21.425Z,7.50
2023-04-07T19:14:47.826Z,10.32
2023-04-07T19:17:14.286Z,14.20
2023-04-07T19:19:40.647Z,17.27
2023-04-07T19:22:07.198Z,13.50
2023-04-07T19:24:34.146Z,10.90
2023-04-07T19:27:00.605Z,11.45
2023-04-07T19:29:27.057Z,11.52
2023-04-07T19:31:55.584Z,10.45
2023-04-07T19:34:22.018Z,10.90
2023-04-07T19:36:48.419Z,13.50
2023-04-07T19:39:14.780Z,14.77
2023-04-07T19:41:41.304Z,14.70
2023-04-07T19:44:07.770Z,14.48
2023-04-07T19:46:34.153Z,15.75
2023-04-07T19:49:00.514Z,18.05
2023-04-07T19:51:27.682Z,14.07
2023-04-07T19:53:54.058Z,11.85
2023-04-07T19:56:20.429Z,9.25
2023-04-07T19:58:47.002Z,8.32
2023-04-07T20:01:19.350Z,7.15
2023-04-07T20:03:46.753Z,7.00
2023-04-07T20:06:14.938Z,7.20
2023-04-07T20:08:42.241Z,6.93
2023-04-07T20:11:12.863Z,5.90
2023-04-07T20:13:39.902Z,5.82
2023-04-07T20:16:06.522Z,6.05
2023-04-07T20:18:32.960Z,6.13
2023-04-07T20:21:00.170Z,6.95
2023-04-07T20:23:27.154Z,6.28
2023-04-07T20:25:53.584Z,6.38
2023-04-07T20:28:20.484Z,6.90
2023-04-07T20:30:46.989Z,7.28
2023-04-07T20:33:14.163Z,7.25
2023-04-07T20:35:40.605Z,6.55
2023-04-07T20:38:09.729Z,7.68
2023-04-07T20:40:38.828Z,7.18
2023-04-07T20:43:05.774Z,7.10
2023-04-07T20:45:34.690Z,10.45
2023-04-07T20:48:01.506Z,12.48
2023-04-07T20:50:28.529Z,10.18
2023-04-07T20:52:54.917Z,8.77
2023-04-07T20:55:21.665Z,7.90
2023-04-07T20:57:48.513Z,8.38
2023-04-07T21:00:15.990Z,8.35
2023-04-07T21:02:43.843Z,8.27
2023-04-07T21:05:10.331Z,8.30
2023-04-07T21:07:36.751Z,8.63
2023-04-07T21:10:03.701Z,9.32
2023-04-07T21:12:30.128Z,8.98
2023-04-07T21:14:56.528Z,8.85
2023-04-07T21:17:22.905Z,7.60
2023-04-07T21:19:49.336Z,8.10
2023-04-07T21:22:15.743Z,8.05
2023-04-07T21:24:42.158Z,7.82
2023-04-07T21:27:08.576Z,7.20
2023-04-07T21:29:35.012Z,7.18
2023-04-07T21:32:01.715Z,6.97
2023-04-07T21:34:28.440Z,7.60
2023-04-07T21:36:57.438Z,7.55
2023-04-07T21:39:23.887Z,7.55
2023-04-07T21:41:52.757Z,6.85
2023-04-07T21:44:21.019Z,7.07
2023-04-07T21:46:47.869Z,7.18
2023-04-07T21:49:14.832Z,6.95
2023-04-07T21:51:41.183Z,6.30
2023-04-07T21:54:07.659Z,6.75
2023-04-07T21:56:34.062Z,6.82
2023-04-07T21:59:00.502Z,6.68
2023-04-07T22:01:27.173Z,6.78
2023-04-07T22:03:54.146Z,6.97
2023-04-07T22:06:23.004Z,6.55
2023-04-07T22:11:21.412Z,6.45
2023-04-07T22:13:47.758Z,6.78
2023-04-07T22:16:14.151Z,6.55
2023-04-07T22:18:40.844Z,6.97
2023-04-07T22:21:07.272Z,6.72
2023-04-07T22:23:33.855Z,6.45
2023-04-07T22:26:00.352Z,6.82
2023-04-07T22:28:26.709Z,6.30
2023-04-07T22:30:53.055Z,6.22
2023-04-07T22:33:19.432Z,6.38
2023-04-07T22:35:46.060Z,6.80
2023-04-07T22:38:13.519Z,6.50
2023-04-07T22:40:42.379Z,6.55
2023-04-07T22:43:08.968Z,6.90
2023-04-07T22:45:35.741Z,6.60
2023-04-07T22:48:02.424Z,7.65
2023-04-07T22:50:28.926Z,7.43
2023-04-07T22:52:55.403Z,7.70
2023-04-07T22:55:21.879Z,7.65
2023-04-07T22:57:48.308Z,8.68
2023-04-07T23:00:15.429Z,8.50
2023-04-07T23:02:42.208Z,7.82
2023-04-07T23:05:10.576Z,8.15
2023-04-07T23:07:37.491Z,8.38
2023-04-07T23:10:04.178Z,8.20
2023-04-07T23:12:33.096Z,7.80
2023-04-07T23:14:59.471Z,7.60
2023-04-07T23:17:26.624Z,7.65
2023-04-07T23:19:52.989Z,8.02
2023-04-07T23:22:19.409Z,7.57
2023-04-07T23:24:45.788Z,7.47
2023-04-07T23:27:12.211Z,7.82
2023-04-07T23:29:38.535Z,7.68
2023-04-07T23:32:05.769Z,7.43
2023-04-07T23:34:32.208Z,7.95
2023-04-07T23:37:01.045Z,8.07
2023-04-07T23:39:27.521Z,7.38
2023-04-07T23:41:53.875Z,7.93
2023-04-07T23:44:20.741Z,7.82
2023-04-07T23:46:47.167Z,7.70
2023-04-07T23:49:13.828Z,8.13
2023-04-07T23:51:40.519Z,7.88
2023-04-07T23:54:07.058Z,8.65
2023-04-07T23:56:33.730Z,7.95
2023-04-07T23:59:00.051Z,8.18
